sensor_id;sensor_type;location;lat;lon;timestamp;P1;durP1;ratioP1;P2;durP2;ratioP2
8913;SDS011;4492;48.736;9.092;2022-08-16T00:00:21;4.30;;;3.50;;
8913;SDS011;4492;48.736;9.092;2022-08-16T00:02:49;3.70;;;3.40;;
8913;SDS011;4492;48.736;9.092;2022-08-16T00:05:16;4.50;;;3.80;;
8913;SDS011;4492;48.736;9.092;2022-08-16T00:07:42;4.80;;;3.87;;
8913;SDS011;4492;48.736;9.092;2022-08-16T00:10:09;5.40;;;4.23;;
8913;SDS011;4492;48.736;9.092;2022-08-16T00:12:37;4.97;;;3.73;;
8913;SDS011;4492;48.736;9.092;2022-08-16T00:15:08;3.90;;;3.57;;
8913;SDS011;4492;48.736;9.092;2022-08-16T00:17:38;3.90;;;3.53;;
8913;SDS011;4492;48.736;9.092;2022-08-16T00:20:04;4.87;;;4.30;;
8913;SDS011;4492;48.736;9.092;2022-08-16T00:22:33;5.50;;;4.00;;
8913;SDS011;4492;48.736;9.092;2022-08-16T00:25:00;4.03;;;3.63;;
8913;SDS011;4492;48.736;9.092;2022-08-16T00:27:26;5.10;;;4.37;;
8913;SDS011;4492;48.736;9.092;2022-08-16T00:29:52;3.97;;;3.67;;
8913;SDS011;4492;48.736;9.092;2022-08-16T00:32:18;3.93;;;3.63;;
8913;SDS011;4492;48.736;9.092;2022-08-16T00:34:44;4.40;;;3.97;;
8913;SDS011;4492;48.736;9.092;2022-08-16T00:37:12;3.80;;;3.50;;
8913;SDS011;4492;48.736;9.092;2022-08-16T00:39:38;4.70;;;3.97;;
8913;SDS011;4492;48.736;9.092;2022-08-16T00:42:04;4.03;;;3.47;;
8913;SDS011;4492;48.736;9.092;2022-08-16T00:44:30;4.90;;;4.27;;
8913;SDS011;4492;48.736;9.092;2022-08-16T00:47:01;5.30;;;4.03;;
8913;SDS011;4492;48.736;9.092;2022-08-16T00:49:33;4.20;;;3.90;;
8913;SDS011;4492;48.736;9.092;2022-08-16T00:52:00;4.83;;;4.10;;
8913;SDS011;4492;48.736;9.092;2022-08-16T00:54:26;4.97;;;3.53;;
8913;SDS011;4492;48.736;9.092;2022-08-16T00:56:55;4.23;;;3.70;;
8913;SDS011;4492;48.736;9.092;2022-08-16T00:59:23;4.87;;;3.90;;
8913;SDS011;4492;48.736;9.092;2022-08-16T01:01:50;6.23;;;4.33;;
8913;SDS011;4492;48.736;9.092;2022-08-16T01:04:17;4.50;;;4.10;;
8913;SDS011;4492;48.736;9.092;2022-08-16T01:06:46;4.73;;;3.90;;
8913;SDS011;4492;48.736;9.092;2022-08-16T01:09:12;4.77;;;4.30;;
8913;SDS011;4492;48.736;9.092;2022-08-16T01:11:38;5.77;;;4.10;;
8913;SDS011;4492;48.736;9.092;2022-08-16T01:14:07;7.60;;;4.50;;
8913;SDS011;4492;48.736;9.092;2022-08-16T01:16:39;5.50;;;4.60;;
8913;SDS011;4492;48.736;9.092;2022-08-16T01:19:09;4.83;;;4.00;;
8913;SDS011;4492;48.736;9.092;2022-08-16T01:24:18;5.13;;;3.77;;
8913;SDS011;4492;48.736;9.092;2022-08-16T01:26:47;4.63;;;4.23;;
8913;SDS011;4492;48.736;9.092;2022-08-16T01:29:17;6.30;;;4.90;;
8913;SDS011;4492;48.736;9.092;2022-08-16T01:31:48;5.53;;;4.43;;
8913;SDS011;4492;48.736;9.092;2022-08-16T01:34:13;4.63;;;4.23;;
8913;SDS011;4492;48.736;9.092;2022-08-16T01:36:41;4.13;;;3.70;;
8913;SDS011;4492;48.736;9.092;2022-08-16T01:39:08;4.47;;;4.07;;
8913;SDS011;4492;48.736;9.092;2022-08-16T01:41:35;4.40;;;4.00;;
8913;SDS011;4492;48.736;9.092;2022-08-16T01:44:01;5.30;;;4.80;;
8913;SDS011;4492;48.736;9.092;2022-08-16T01:46:29;6.13;;;4.60;;
8913;SDS011;4492;48.736;9.092;2022-08-16T01:48:59;6.03;;;4.20;;
8913;SDS011;4492;48.736;9.092;2022-08-16T01:51:31;7.60;;;3.73;;
8913;SDS011;4492;48.736;9.092;2022-08-16T01:53:57;6.17;;;4.60;;
8913;SDS011;4492;48.736;9.092;2022-08-16T01:56:22;7.47;;;5.13;;
8913;SDS011;4492;48.736;9.092;2022-08-16T01:58:50;7.30;;;4.23;;
8913;SDS011;4492;48.736;9.092;2022-08-16T02:01:19;5.87;;;4.10;;
8913;SDS011;4492;48.736;9.092;2022-08-16T02:03:45;7.23;;;4.40;;
8913;SDS011;4492;48.736;9.092;2022-08-16T02:06:10;7.30;;;4.80;;
8913;SDS011;4492;48.736;9.092;2022-08-16T02:08:36;7.17;;;4.30;;
8913;SDS011;4492;48.736;9.092;2022-08-16T02:11:04;5.73;;;4.73;;
8913;SDS011;4492;48.736;9.092;2022-08-16T02:13:32;5.77;;;4.40;;
8913;SDS011;4492;48.736;9.092;2022-08-16T02:15:58;7.27;;;4.90;;
8913;SDS011;4492;48.736;9.092;2022-08-16T02:18:24;4.80;;;4.30;;
8913;SDS011;4492;48.736;9.092;2022-08-16T02:20:50;5.17;;;4.47;;
8913;SDS011;4492;48.736;9.092;2022-08-16T02:23:17;6.53;;;4.03;;
8913;SDS011;4492;48.736;9.092;2022-08-16T02:25:43;5.47;;;4.10;;
8913;SDS011;4492;48.736;9.092;2022-08-16T02:28:09;4.00;;;3.70;;
8913;SDS011;4492;48.736;9.092;2022-08-16T02:30:34;4.27;;;3.90;;
8913;SDS011;4492;48.736;9.092;2022-08-16T02:33:00;5.20;;;4.70;;
8913;SDS011;4492;48.736;9.092;2022-08-16T02:35:27;5.23;;;4.43;;
8913;SDS011;4492;48.736;9.092;2022-08-16T02:37:52;4.40;;;4.00;;
8913;SDS011;4492;48.736;9.092;2022-08-16T02:40:19;5.07;;;4.20;;
8913;SDS011;4492;48.736;9.092;2022-08-16T02:42:47;6.00;;;4.20;;
8913;SDS011;4492;48.736;9.092;2022-08-16T02:45:14;4.47;;;4.07;;
8913;SDS011;4492;48.736;9.092;2022-08-16T02:47:39;7.33;;;4.50;;
8913;SDS011;4492;48.736;9.092;2022-08-16T02:50:05;5.90;;;4.10;;
8913;SDS011;4492;48.736;9.092;2022-08-16T02:52:32;4.60;;;4.20;;
8913;SDS011;4492;48.736;9.092;2022-08-16T02:54:58;5.00;;;4.50;;
8913;SDS011;4492;48.736;9.092;2022-08-16T02:57:23;4.83;;;4.33;;
8913;SDS011;4492;48.736;9.092;2022-08-16T02:59:50;5.23;;;4.40;;
8913;SDS011;4492;48.736;9.092;2022-08-16T03:02:16;5.43;;;4.67;;
8913;SDS011;4492;48.736;9.092;2022-08-16T03:04:42;4.07;;;3.73;;
8913;SDS011;4492;48.736;9.092;2022-08-16T03:07:08;4.60;;;4.20;;
8913;SDS011;4492;48.736;9.092;2022-08-16T03:09:35;4.43;;;4.00;;
8913;SDS011;4492;48.736;9.092;2022-08-16T03:12:02;4.33;;;3.97;;
8913;SDS011;4492;48.736;9.092;2022-08-16T03:14:29;4.07;;;3.70;;
8913;SDS011;4492;48.736;9.092;2022-08-16T03:16:55;5.07;;;4.40;;
8913;SDS011;4492;48.736;9.092;2022-08-16T03:19:21;4.57;;;4.17;;
8913;SDS011;4492;48.736;9.092;2022-08-16T03:21:46;4.60;;;4.20;;
8913;SDS011;4492;48.736;9.092;2022-08-16T03:24:12;4.30;;;3.93;;
8913;SDS011;4492;48.736;9.092;2022-08-16T03:26:38;4.97;;;4.10;;
8913;SDS011;4492;48.736;9.092;2022-08-16T03:29:03;6.37;;;4.60;;
8913;SDS011;4492;48.736;9.092;2022-08-16T03:31:29;4.87;;;4.47;;
8913;SDS011;4492;48.736;9.092;2022-08-16T03:33:55;4.43;;;4.03;;
8913;SDS011;4492;48.736;9.092;2022-08-16T03:36:20;5.20;;;4.67;;
8913;SDS011;4492;48.736;9.092;2022-08-16T03:38:46;4.67;;;4.27;;
8913;SDS011;4492;48.736;9.092;2022-08-16T03:41:12;4.73;;;4.33;;
8913;SDS011;4492;48.736;9.092;2022-08-16T03:43:37;5.33;;;4.33;;
8913;SDS011;4492;48.736;9.092;2022-08-16T03:46:03;5.03;;;4.20;;
8913;SDS011;4492;48.736;9.092;2022-08-16T03:48:32;6.70;;;3.77;;
8913;SDS011;4492;48.736;9.092;2022-08-16T03:51:00;5.20;;;4.70;;
8913;SDS011;4492;48.736;9.092;2022-08-16T03:53:28;4.80;;;4.40;;
8913;SDS011;4492;48.736;9.092;2022-08-16T03:55:54;4.50;;;4.20;;
8913;SDS011;4492;48.736;9.092;2022-08-16T03:58:20;5.07;;;4.67;;
8913;SDS011;4492;48.736;9.092;2022-08-16T04:00:46;5.20;;;4.50;;
8913;SDS011;4492;48.736;9.092;2022-08-16T04:03:13;4.87;;;4.47;;
8913;SDS011;4492;48.736;9.092;2022-08-16T04:05:40;6.50;;;4.40;;
8913;SDS011;4492;48.736;9.092;2022-08-16T04:08:10;5.57;;;4.60;;
8913;SDS011;4492;48.736;9.092;2022-08-16T04:10:36;5.50;;;4.37;;
8913;SDS011;4492;48.736;9.092;2022-08-16T04:13:01;5.67;;;4.53;;
8913;SDS011;4492;48.736;9.092;2022-08-16T04:15:27;6.37;;;4.83;;
8913;SDS011;4492;48.736;9.092;2022-08-16T04:17:53;4.83;;;4.40;;
8913;SDS011;4492;48.736;9.092;2022-08-16T04:20:19;5.00;;;4.37;;
8913;SDS011;4492;48.736;9.092;2022-08-16T04:22:45;4.60;;;4.20;;
8913;SDS011;4492;48.736;9.092;2022-08-16T04:25:11;5.93;;;4.17;;
8913;SDS011;4492;48.736;9.092;2022-08-16T04:27:37;6.10;;;4.53;;
8913;SDS011;4492;48.736;9.092;2022-08-16T04:30:05;4.87;;;4.43;;
8913;SDS011;4492;48.736;9.092;2022-08-16T04:32:35;4.30;;;3.90;;
8913;SDS011;4492;48.736;9.092;2022-08-16T04:35:02;5.00;;;4.47;;
8913;SDS011;4492;48.736;9.092;2022-08-16T04:37:29;6.60;;;4.37;;
8913;SDS011;4492;48.736;9.092;2022-08-16T04:39:55;4.73;;;4.27;;
8913;SDS011;4492;48.736;9.092;2022-08-16T04:42:20;5.70;;;4.27;;
8913;SDS011;4492;48.736;9.092;2022-08-16T04:44:46;6.33;;;4.40;;
8913;SDS011;4492;48.736;9.092;2022-08-16T04:47:12;5.47;;;4.97;;
8913;SDS011;4492;48.736;9.092;2022-08-16T04:49:37;4.63;;;4.23;;
8913;SDS011;4492;48.736;9.092;2022-08-16T04:52:03;7.97;;;4.73;;
8913;SDS011;4492;48.736;9.092;2022-08-16T04:54:29;5.40;;;4.20;;
8913;SDS011;4492;48.736;9.092;2022-08-16T04:56:55;4.70;;;4.30;;
8913;SDS011;4492;48.736;9.092;2022-08-16T04:59:20;4.77;;;4.37;;
8913;SDS011;4492;48.736;9.092;2022-08-16T05:01:46;4.30;;;3.90;;
8913;SDS011;4492;48.736;9.092;2022-08-16T05:04:12;5.90;;;4.53;;
8913;SDS011;4492;48.736;9.092;2022-08-16T05:06:37;4.60;;;4.10;;
8913;SDS011;4492;48.736;9.092;2022-08-16T05:09:03;4.87;;;4.27;;
8913;SDS011;4492;48.736;9.092;2022-08-16T05:11:28;4.70;;;4.30;;
8913;SDS011;4492;48.736;9.092;2022-08-16T05:13:55;4.23;;;3.93;;
8913;SDS011;4492;48.736;9.092;2022-08-16T05:16:22;4.43;;;3.60;;
8913;SDS011;4492;48.736;9.092;2022-08-16T05:18:52;6.57;;;4.00;;
8913;SDS011;4492;48.736;9.092;2022-08-16T05:21:19;4.23;;;3.83;;
8913;SDS011;4492;48.736;9.092;2022-08-16T05:23:45;4.37;;;3.97;;
8913;SDS011;4492;48.736;9.092;2022-08-16T05:26:11;4.17;;;3.77;;
8913;SDS011;4492;48.736;9.092;2022-08-16T05:28:37;5.53;;;4.43;;
8913;SDS011;4492;48.736;9.092;2022-08-16T05:31:02;6.23;;;4.47;;
8913;SDS011;4492;48.736;9.092;2022-08-16T05:33:28;5.93;;;4.27;;
8913;SDS011;4492;48.736;9.092;2022-08-16T05:35:53;4.57;;;3.70;;
8913;SDS011;4492;48.736;9.092;2022-08-16T05:38:19;4.60;;;4.20;;
8913;SDS011;4492;48.736;9.092;2022-08-16T05:40:51;4.70;;;4.30;;
8913;SDS011;4492;48.736;9.092;2022-08-16T05:43:20;4.43;;;4.03;;
8913;SDS011;4492;48.736;9.092;2022-08-16T05:45:45;4.43;;;4.00;;
8913;SDS011;4492;48.736;9.092;2022-08-16T05:48:11;4.30;;;3.90;;
8913;SDS011;4492;48.736;9.092;2022-08-16T05:50:37;4.07;;;3.77;;
8913;SDS011;4492;48.736;9.092;2022-08-16T05:53:03;5.10;;;4.30;;
8913;SDS011;4492;48.736;9.092;2022-08-16T05:55:29;4.77;;;4.30;;
8913;SDS011;4492;48.736;9.092;2022-08-16T05:57:55;4.73;;;4.33;;
8913;SDS011;4492;48.736;9.092;2022-08-16T06:00:20;7.37;;;4.23;;
8913;SDS011;4492;48.736;9.092;2022-08-16T06:02:49;7.27;;;4.60;;
8913;SDS011;4492;48.736;9.092;2022-08-16T06:05:15;4.57;;;4.17;;
8913;SDS011;4492;48.736;9.092;2022-08-16T06:07:41;7.03;;;4.37;;
8913;SDS011;4492;48.736;9.092;2022-08-16T06:10:08;4.30;;;3.90;;
8913;SDS011;4492;48.736;9.092;2022-08-16T06:12:34;4.97;;;4.10;;
8913;SDS011;4492;48.736;9.092;2022-08-16T06:15:00;6.63;;;4.20;;
8913;SDS011;4492;48.736;9.092;2022-08-16T06:17:28;4.53;;;4.10;;
8913;SDS011;4492;48.736;9.092;2022-08-16T06:19:54;5.27;;;4.23;;
8913;SDS011;4492;48.736;9.092;2022-08-16T06:22:20;4.27;;;3.87;;
8913;SDS011;4492;48.736;9.092;2022-08-16T06:24:45;5.00;;;4.60;;
8913;SDS011;4492;48.736;9.092;2022-08-16T06:27:11;5.03;;;4.37;;
8913;SDS011;4492;48.736;9.092;2022-08-16T06:29:37;5.00;;;4.50;;
8913;SDS011;4492;48.736;9.092;2022-08-16T06:32:03;4.37;;;3.97;;
8913;SDS011;4492;48.736;9.092;2022-08-16T06:34:29;5.50;;;4.17;;
8913;SDS011;4492;48.736;9.092;2022-08-16T06:36:54;5.83;;;4.10;;
8913;SDS011;4492;48.736;9.092;2022-08-16T06:39:20;4.60;;;4.20;;
8913;SDS011;4492;48.736;9.092;2022-08-16T06:41:46;5.77;;;3.83;;
8913;SDS011;4492;48.736;9.092;2022-08-16T06:44:11;5.80;;;4.37;;
8913;SDS011;4492;48.736;9.092;2022-08-16T06:46:37;5.87;;;4.00;;
8913;SDS011;4492;48.736;9.092;2022-08-16T06:49:04;4.40;;;4.00;;
8913;SDS011;4492;48.736;9.092;2022-08-16T06:51:31;6.03;;;4.20;;
8913;SDS011;4492;48.736;9.092;2022-08-16T06:53:57;6.83;;;4.80;;
8913;SDS011;4492;48.736;9.092;2022-08-16T06:56:23;4.70;;;4.30;;
8913;SDS011;4492;48.736;9.092;2022-08-16T06:58:49;4.57;;;4.20;;
8913;SDS011;4492;48.736;9.092;2022-08-16T07:01:16;6.43;;;4.97;;
8913;SDS011;4492;48.736;9.092;2022-08-16T07:03:41;4.80;;;4.37;;
8913;SDS011;4492;48.736;9.092;2022-08-16T07:06:07;6.73;;;4.67;;
8913;SDS011;4492;48.736;9.092;2022-08-16T07:08:33;4.57;;;4.17;;
8913;SDS011;4492;48.736;9.092;2022-08-16T07:10:58;6.57;;;5.03;;
8913;SDS011;4492;48.736;9.092;2022-08-16T07:13:25;5.63;;;4.43;;
8913;SDS011;4492;48.736;9.092;2022-08-16T07:15:50;6.43;;;4.77;;
8913;SDS011;4492;48.736;9.092;2022-08-16T07:18:19;7.13;;;4.60;;
8913;SDS011;4492;48.736;9.092;2022-08-16T07:20:46;5.43;;;4.40;;
8913;SDS011;4492;48.736;9.092;2022-08-16T07:23:13;5.80;;;4.53;;
8913;SDS011;4492;48.736;9.092;2022-08-16T07:25:39;5.60;;;4.83;;
8913;SDS011;4492;48.736;9.092;2022-08-16T07:28:06;5.23;;;4.73;;
8913;SDS011;4492;48.736;9.092;2022-08-16T07:30:32;5.00;;;4.57;;
8913;SDS011;4492;48.736;9.092;2022-08-16T07:32:58;6.87;;;4.70;;
8913;SDS011;4492;48.736;9.092;2022-08-16T07:35:24;6.23;;;4.67;;
8913;SDS011;4492;48.736;9.092;2022-08-16T07:37:50;5.50;;;4.90;;
8913;SDS011;4492;48.736;9.092;2022-08-16T07:40:16;5.20;;;4.80;;
8913;SDS011;4492;48.736;9.092;2022-08-16T07:42:42;5.80;;;4.93;;
8913;SDS011;4492;48.736;9.092;2022-08-16T07:45:07;6.20;;;4.97;;
8913;SDS011;4492;48.736;9.092;2022-08-16T07:47:34;6.97;;;5.00;;
8913;SDS011;4492;48.736;9.092;2022-08-16T07:50:00;5.57;;;5.07;;
8913;SDS011;4492;48.736;9.092;2022-08-16T07:52:26;5.30;;;4.80;;
8913;SDS011;4492;48.736;9.092;2022-08-16T07:54:51;6.50;;;5.20;;
8913;SDS011;4492;48.736;9.092;2022-08-16T07:57:17;6.63;;;5.27;;
8913;SDS011;4492;48.736;9.092;2022-08-16T07:59:43;5.70;;;5.13;;
8913;SDS011;4492;48.736;9.092;2022-08-16T08:02:10;5.37;;;4.97;;
8913;SDS011;4492;48.736;9.092;2022-08-16T08:04:36;4.97;;;4.67;;
8913;SDS011;4492;48.736;9.092;2022-08-16T08:07:02;5.93;;;5.33;;
8913;SDS011;4492;48.736;9.092;2022-08-16T08:09:28;5.97;;;5.10;;
8913;SDS011;4492;48.736;9.092;2022-08-16T08:11:53;5.53;;;5.03;;
8913;SDS011;4492;48.736;9.092;2022-08-16T08:14:19;5.43;;;4.63;;
8913;SDS011;4492;48.736;9.092;2022-08-16T08:16:45;5.73;;;5.17;;
8913;SDS011;4492;48.736;9.092;2022-08-16T08:19:11;5.33;;;4.93;;
8913;SDS011;4492;48.736;9.092;2022-08-16T08:21:37;6.73;;;5.73;;
8913;SDS011;4492;48.736;9.092;2022-08-16T08:24:04;5.23;;;4.70;;
8913;SDS011;4492;48.736;9.092;2022-08-16T08:26:32;5.43;;;4.83;;
8913;SDS011;4492;48.736;9.092;2022-08-16T08:28:58;9.67;;;5.07;;
8913;SDS011;4492;48.736;9.092;2022-08-16T08:31:24;5.57;;;4.83;;
8913;SDS011;4492;48.736;9.092;2022-08-16T08:33:49;5.97;;;5.27;;
8913;SDS011;4492;48.736;9.092;2022-08-16T08:36:16;5.67;;;5.17;;
8913;SDS011;4492;48.736;9.092;2022-08-16T08:38:51;8.93;;;4.63;;
8913;SDS011;4492;48.736;9.092;2022-08-16T08:41:17;6.60;;;4.83;;
8913;SDS011;4492;48.736;9.092;2022-08-16T08:43:43;5.83;;;5.20;;
8913;SDS011;4492;48.736;9.092;2022-08-16T08:46:08;6.07;;;4.87;;
8913;SDS011;4492;48.736;9.092;2022-08-16T08:48:34;5.53;;;4.83;;
8913;SDS011;4492;48.736;9.092;2022-08-16T08:51:00;5.07;;;4.60;;
8913;SDS011;4492;48.736;9.092;2022-08-16T08:53:30;5.87;;;4.70;;
8913;SDS011;4492;48.736;9.092;2022-08-16T08:55:57;5.30;;;4.80;;
8913;SDS011;4492;48.736;9.092;2022-08-16T08:58:22;5.30;;;4.80;;
8913;SDS011;4492;48.736;9.092;2022-08-16T09:00:48;5.70;;;4.77;;
8913;SDS011;4492;48.736;9.092;2022-08-16T09:03:14;6.07;;;5.40;;
8913;SDS011;4492;48.736;9.092;2022-08-16T09:05:40;4.90;;;4.50;;
8913;SDS011;4492;48.736;9.092;2022-08-16T09:08:06;9.33;;;4.80;;
8913;SDS011;4492;48.736;9.092;2022-08-16T09:10:32;5.27;;;4.67;;
8913;SDS011;4492;48.736;9.092;2022-08-16T09:12:58;6.73;;;4.70;;
8913;SDS011;4492;48.736;9.092;2022-08-16T09:15:24;4.83;;;4.27;;
8913;SDS011;4492;48.736;9.092;2022-08-16T09:17:50;4.80;;;4.50;;
8913;SDS011;4492;48.736;9.092;2022-08-16T09:20:19;5.27;;;4.13;;
8913;SDS011;4492;48.736;9.092;2022-08-16T09:22:45;4.77;;;4.40;;
8913;SDS011;4492;48.736;9.092;2022-08-16T09:25:11;6.33;;;4.23;;
8913;SDS011;4492;48.736;9.092;2022-08-16T09:27:37;4.20;;;3.90;;
8913;SDS011;4492;48.736;9.092;2022-08-16T09:30:04;4.73;;;3.77;;
8913;SDS011;4492;48.736;9.092;2022-08-16T09:32:32;4.90;;;4.17;;
8913;SDS011;4492;48.736;9.092;2022-08-16T09:34:59;5.93;;;3.97;;
8913;SDS011;4492;48.736;9.092;2022-08-16T09:37:26;6.00;;;4.40;;
8913;SDS011;4492;48.736;9.092;2022-08-16T09:39:52;8.20;;;4.60;;
8913;SDS011;4492;48.736;9.092;2022-08-16T09:42:17;5.23;;;4.70;;
8913;SDS011;4492;48.736;9.092;2022-08-16T09:44:43;4.60;;;4.30;;
8913;SDS011;4492;48.736;9.092;2022-08-16T09:47:09;4.63;;;4.23;;
8913;SDS011;4492;48.736;9.092;2022-08-16T09:49:35;6.53;;;4.40;;
8913;SDS011;4492;48.736;9.092;2022-08-16T09:52:01;4.60;;;4.20;;
8913;SDS011;4492;48.736;9.092;2022-08-16T09:54:26;4.53;;;4.23;;
8913;SDS011;4492;48.736;9.092;2022-08-16T09:56:52;4.63;;;4.33;;
8913;SDS011;4492;48.736;9.092;2022-08-16T09:59:18;4.97;;;4.37;;
8913;SDS011;4492;48.736;9.092;2022-08-16T10:01:44;6.07;;;4.57;;
8913;SDS011;4492;48.736;9.092;2022-08-16T10:04:12;4.57;;;4.20;;
8913;SDS011;4492;48.736;9.092;2022-08-16T10:06:38;7.13;;;4.47;;
8913;SDS011;4492;48.736;9.092;2022-08-16T10:09:05;4.90;;;4.30;;
8913;SDS011;4492;48.736;9.092;2022-08-16T10:11:35;5.07;;;4.40;;
8913;SDS011;4492;48.736;9.092;2022-08-16T10:14:21;4.70;;;4.40;;
8913;SDS011;4492;48.736;9.092;2022-08-16T10:16:50;5.13;;;4.23;;
8913;SDS011;4492;48.736;9.092;2022-08-16T10:19:17;6.97;;;4.80;;
8913;SDS011;4492;48.736;9.092;2022-08-16T10:21:43;4.63;;;4.23;;
8913;SDS011;4492;48.736;9.092;2022-08-16T10:24:08;5.97;;;4.53;;
8913;SDS011;4492;48.736;9.092;2022-08-16T10:26:35;4.80;;;4.33;;
8913;SDS011;4492;48.736;9.092;2022-08-16T10:29:01;4.80;;;4.40;;
8913;SDS011;4492;48.736;9.092;2022-08-16T10:31:28;6.93;;;4.40;;
8913;SDS011;4492;48.736;9.092;2022-08-16T10:33:53;4.27;;;3.97;;
8913;SDS011;4492;48.736;9.092;2022-08-16T10:36:19;5.77;;;4.33;;
8913;SDS011;4492;48.736;9.092;2022-08-16T10:38:45;6.83;;;4.97;;
8913;SDS011;4492;48.736;9.092;2022-08-16T10:41:10;4.80;;;4.37;;
8913;SDS011;4492;48.736;9.092;2022-08-16T10:43:37;4.53;;;4.23;;
8913;SDS011;4492;48.736;9.092;2022-08-16T10:46:06;5.07;;;4.37;;
8913;SDS011;4492;48.736;9.092;2022-08-16T10:48:36;5.47;;;4.30;;
8913;SDS011;4492;48.736;9.092;2022-08-16T10:51:04;5.10;;;4.70;;
8913;SDS011;4492;48.736;9.092;2022-08-16T10:53:30;4.37;;;4.07;;
8913;SDS011;4492;48.736;9.092;2022-08-16T10:55:56;5.10;;;4.70;;
8913;SDS011;4492;48.736;9.092;2022-08-16T10:58:23;6.17;;;5.10;;
8913;SDS011;4492;48.736;9.092;2022-08-16T11:00:50;7.23;;;4.50;;
8913;SDS011;4492;48.736;9.092;2022-08-16T11:03:16;5.20;;;4.73;;
8913;SDS011;4492;48.736;9.092;2022-08-16T11:05:42;5.83;;;4.80;;
8913;SDS011;4492;48.736;9.092;2022-08-16T11:08:08;5.00;;;4.60;;
8913;SDS011;4492;48.736;9.092;2022-08-16T11:10:37;4.60;;;4.20;;
8913;SDS011;4492;48.736;9.092;2022-08-16T11:13:05;4.53;;;4.13;;
8913;SDS011;4492;48.736;9.092;2022-08-16T11:15:32;5.37;;;4.57;;
8913;SDS011;4492;48.736;9.092;2022-08-16T11:17:58;5.40;;;4.90;;
8913;SDS011;4492;48.736;9.092;2022-08-16T11:20:24;6.57;;;4.50;;
8913;SDS011;4492;48.736;9.092;2022-08-16T11:22:52;5.10;;;4.60;;
8913;SDS011;4492;48.736;9.092;2022-08-16T11:25:19;4.60;;;4.27;;
8913;SDS011;4492;48.736;9.092;2022-08-16T11:27:47;6.00;;;4.30;;
8913;SDS011;4492;48.736;9.092;2022-08-16T11:30:13;5.30;;;4.47;;
8913;SDS011;4492;48.736;9.092;2022-08-16T11:32:40;5.10;;;4.60;;
8913;SDS011;4492;48.736;9.092;2022-08-16T11:35:09;4.27;;;3.90;;
8913;SDS011;4492;48.736;9.092;2022-08-16T11:37:37;4.37;;;4.07;;
8913;SDS011;4492;48.736;9.092;2022-08-16T11:40:04;5.27;;;4.20;;
8913;SDS011;4492;48.736;9.092;2022-08-16T11:42:31;4.73;;;4.23;;
8913;SDS011;4492;48.736;9.092;2022-08-16T11:44:57;5.03;;;4.03;;
8913;SDS011;4492;48.736;9.092;2022-08-16T11:47:22;4.60;;;4.20;;
8913;SDS011;4492;48.736;9.092;2022-08-16T11:49:48;5.40;;;4.23;;
8913;SDS011;4492;48.736;9.092;2022-08-16T11:52:13;5.17;;;4.30;;
8913;SDS011;4492;48.736;9.092;2022-08-16T11:54:41;5.00;;;4.30;;
8913;SDS011;4492;48.736;9.092;2022-08-16T11:57:10;5.50;;;4.33;;
8913;SDS011;4492;48.736;9.092;2022-08-16T11:59:37;4.80;;;4.40;;
8913;SDS011;4492;48.736;9.092;2022-08-16T12:02:04;5.47;;;4.40;;
8913;SDS011;4492;48.736;9.092;2022-08-16T12:04:31;4.77;;;4.03;;
8913;SDS011;4492;48.736;9.092;2022-08-16T12:06:58;6.93;;;4.10;;
8913;SDS011;4492;48.736;9.092;2022-08-16T12:09:26;4.43;;;3.77;;
8913;SDS011;4492;48.736;9.092;2022-08-16T12:11:52;5.57;;;4.40;;
8913;SDS011;4492;48.736;9.092;2022-08-16T12:14:18;4.30;;;3.90;;
8913;SDS011;4492;48.736;9.092;2022-08-16T12:16:44;3.87;;;3.60;;
8913;SDS011;4492;48.736;9.092;2022-08-16T12:19:10;4.80;;;3.90;;
8913;SDS011;4492;48.736;9.092;2022-08-16T12:21:36;4.53;;;4.20;;
8913;SDS011;4492;48.736;9.092;2022-08-16T12:24:03;3.93;;;3.60;;
8913;SDS011;4492;48.736;9.092;2022-08-16T12:26:29;4.87;;;3.90;;
8913;SDS011;4492;48.736;9.092;2022-08-16T12:28:55;4.20;;;3.90;;
8913;SDS011;4492;48.736;9.092;2022-08-16T12:31:21;4.20;;;3.90;;
8913;SDS011;4492;48.736;9.092;2022-08-16T12:33:48;3.90;;;3.60;;
8913;SDS011;4492;48.736;9.092;2022-08-16T12:36:13;4.20;;;3.90;;
8913;SDS011;4492;48.736;9.092;2022-08-16T12:38:41;6.20;;;4.17;;
8913;SDS011;4492;48.736;9.092;2022-08-16T12:41:07;4.63;;;3.90;;
8913;SDS011;4492;48.736;9.092;2022-08-16T12:43:32;3.83;;;3.63;;
8913;SDS011;4492;48.736;9.092;2022-08-16T12:45:58;4.87;;;3.97;;
8913;SDS011;4492;48.736;9.092;2022-08-16T12:48:26;4.53;;;4.17;;
8913;SDS011;4492;48.736;9.092;2022-08-16T12:51:14;3.93;;;3.63;;
8913;SDS011;4492;48.736;9.092;2022-08-16T12:53:42;4.37;;;4.07;;
8913;SDS011;4492;48.736;9.092;2022-08-16T12:56:08;4.05;;;3.75;;
8913;SDS011;4492;48.736;9.092;2022-08-16T12:58:36;3.88;;;3.58;;
8913;SDS011;4492;48.736;9.092;2022-08-16T13:01:05;4.15;;;3.78;;
8913;SDS011;4492;48.736;9.092;2022-08-16T13:03:32;4.10;;;3.70;;
8913;SDS011;4492;48.736;9.092;2022-08-16T13:05:58;6.53;;;4.18;;
8913;SDS011;4492;48.736;9.092;2022-08-16T13:08:24;4.13;;;3.83;;
8913;SDS011;4492;48.736;9.092;2022-08-16T13:10:50;3.97;;;3.78;;
8913;SDS011;4492;48.736;9.092;2022-08-16T13:13:19;3.78;;;3.55;;
8913;SDS011;4492;48.736;9.092;2022-08-16T13:15:56;3.70;;;3.40;;
8913;SDS011;4492;48.736;9.092;2022-08-16T13:18:25;4.57;;;3.63;;
8913;SDS011;4492;48.736;9.092;2022-08-16T13:20:53;4.28;;;3.88;;
8913;SDS011;4492;48.736;9.092;2022-08-16T13:23:18;4.40;;;4.03;;
8913;SDS011;4492;48.736;9.092;2022-08-16T13:25:46;3.90;;;3.63;;
8913;SDS011;4492;48.736;9.092;2022-08-16T13:28:12;4.05;;;3.75;;
8913;SDS011;4492;48.736;9.092;2022-08-16T13:30:43;3.53;;;3.23;;
8913;SDS011;4492;48.736;9.092;2022-08-16T13:33:20;4.13;;;3.90;;
8913;SDS011;4492;48.736;9.092;2022-08-16T13:35:53;4.57;;;3.60;;
8913;SDS011;4492;48.736;9.092;2022-08-16T13:38:19;3.57;;;3.37;;
8913;SDS011;4492;48.736;9.092;2022-08-16T13:40:45;4.27;;;3.83;;
8913;SDS011;4492;48.736;9.092;2022-08-16T13:43:11;4.40;;;4.00;;
8913;SDS011;4492;48.736;9.092;2022-08-16T13:45:36;4.47;;;3.63;;
8913;SDS011;4492;48.736;9.092;2022-08-16T13:48:02;3.83;;;3.53;;
8913;SDS011;4492;48.736;9.092;2022-08-16T13:50:32;4.50;;;3.60;;
8913;SDS011;4492;48.736;9.092;2022-08-16T13:52:58;4.10;;;3.70;;
8913;SDS011;4492;48.736;9.092;2022-08-16T13:55:25;4.90;;;3.80;;
8913;SDS011;4492;48.736;9.092;2022-08-16T13:57:51;4.50;;;4.10;;
8913;SDS011;4492;48.736;9.092;2022-08-16T14:00:16;4.40;;;3.40;;
8913;SDS011;4492;48.736;9.092;2022-08-16T14:02:43;4.03;;;3.67;;
8913;SDS011;4492;48.736;9.092;2022-08-16T14:05:09;3.77;;;3.40;;
8913;SDS011;4492;48.736;9.092;2022-08-16T14:07:35;4.60;;;3.60;;
8913;SDS011;4492;48.736;9.092;2022-08-16T14:10:05;3.83;;;3.53;;
8913;SDS011;4492;48.736;9.092;2022-08-16T14:12:34;3.65;;;3.35;;
8913;SDS011;4492;48.736;9.092;2022-08-16T14:15:01;3.88;;;3.50;;
8913;SDS011;4492;48.736;9.092;2022-08-16T14:17:29;3.67;;;3.38;;
8913;SDS011;4492;48.736;9.092;2022-08-16T14:19:55;3.58;;;3.38;;
8913;SDS011;4492;48.736;9.092;2022-08-16T14:22:24;4.10;;;3.63;;
8913;SDS011;4492;48.736;9.092;2022-08-16T14:24:53;3.63;;;3.33;;
8913;SDS011;4492;48.736;9.092;2022-08-16T14:27:24;3.50;;;3.30;;
8913;SDS011;4492;48.736;9.092;2022-08-16T14:29:52;3.92;;;3.63;;
8913;SDS011;4492;48.736;9.092;2022-08-16T14:32:19;3.78;;;3.35;;
8913;SDS011;4492;48.736;9.092;2022-08-16T14:34:46;3.30;;;3.10;;
8913;SDS011;4492;48.736;9.092;2022-08-16T14:37:11;4.28;;;3.72;;
8913;SDS011;4492;48.736;9.092;2022-08-16T14:39:37;3.55;;;3.25;;
8913;SDS011;4492;48.736;9.092;2022-08-16T14:42:06;3.55;;;3.20;;
8913;SDS011;4492;48.736;9.092;2022-08-16T14:44:35;8.23;;;3.15;;
8913;SDS011;4492;48.736;9.092;2022-08-16T14:47:01;3.80;;;3.50;;
8913;SDS011;4492;48.736;9.092;2022-08-16T14:49:27;3.70;;;3.40;;
8913;SDS011;4492;48.736;9.092;2022-08-16T14:51:53;3.95;;;3.45;;
8913;SDS011;4492;48.736;9.092;2022-08-16T14:54:18;4.97;;;3.30;;
8913;SDS011;4492;48.736;9.092;2022-08-16T14:56:44;3.50;;;3.20;;
8913;SDS011;4492;48.736;9.092;2022-08-16T14:59:13;3.72;;;3.53;;
8913;SDS011;4492;48.736;9.092;2022-08-16T15:01:39;3.60;;;3.30;;
8913;SDS011;4492;48.736;9.092;2022-08-16T15:04:05;5.03;;;3.40;;
8913;SDS011;4492;48.736;9.092;2022-08-16T15:06:30;3.50;;;3.15;;
8913;SDS011;4492;48.736;9.092;2022-08-16T15:08:56;3.97;;;3.40;;
8913;SDS011;4492;48.736;9.092;2022-08-16T15:11:22;3.80;;;3.40;;
8913;SDS011;4492;48.736;9.092;2022-08-16T15:13:47;5.90;;;3.75;;